SUT weather

Sumbawanga Airport
Sumbawanga, Rukwa Region, Tanzania

Public forecast

Using degrees Celsius for public forecast. Weather courtesy of forecast.io.

Current aviation weather report (METAR) for Sumbawanga Airport

Retrieved 2020/02/18 12:00 UTC (9 minutes ago):

HTSU 181200Z 11012KT 9999 FEW022 FEW024CB 26/17 Q1019

Closest aviation forecast (TAF) to Sumbawanga Airport

Forecast is more than 12 hours old.

Closest forecast is Songwe Airport, 114.7 nm (212.5 km) ESE. Retrieved 2020/02/14 12:00 UTC (4 days ago):

TAF HTGW 141100Z 1412/1512 33010KT 9999 RA SCT025 FEW026CB BKN080 BECMG 1415/1418 09010KT NSW SCT022 FEW024CB